Time;durP1;ratioP1;P1;durP2;ratioP2;P2;SDS_P1;SDS_P2;PMS_P1;PMS_P2;Temp;Humidity;BMP_temperature;BMP_pressure;BME280_temperature;BME280_humidity;BME280_pressure;Samples;Min_cycle;Max_cycle;Signal;HPM_P1;HPM_P2
2021/10/12 00:00:31;;;;;;;19.10;15.07;;;;;;;9.13;100.00;153704.19;5011199;28;20893;-73
2021/10/12 00:03:08;;;;;;;19.93;13.67;;;;;;;9.10;100.00;153696.41;5012664;28;20948;-73
2021/10/12 00:05:44;;;;;;;19.67;14.70;;;;;;;9.10;100.00;153696.41;5013431;28;20442;-73
2021/10/12 00:08:19;;;;;;;17.93;14.30;;;;;;;9.08;100.00;153691.25;5030129;28;20545;-73
2021/10/12 00:10:55;;;;;;;20.10;14.53;;;;;;;9.07;100.00;153688.66;5031700;28;20433;-73
2021/10/12 00:13:31;;;;;;;21.07;15.47;;;;;;;9.07;100.00;153688.66;5014044;28;20478;-73
2021/10/12 00:16:06;;;;;;;18.77;14.53;;;;;;;9.07;100.00;153689.97;5013683;28;20435;-73
2021/10/12 00:18:44;;;;;;;17.60;15.13;;;;;;;9.09;100.00;153693.81;5010073;28;20487;-73
2021/10/12 00:21:19;;;;;;;18.70;14.67;;;;;;;9.10;100.00;153697.72;5015819;28;20602;-73
2021/10/12 00:23:55;;;;;;;20.90;16.20;;;;;;;9.09;100.00;153695.13;5014297;28;20544;-73
2021/10/12 00:26:31;;;;;;;21.27;16.60;;;;;;;9.10;100.00;153696.41;5021266;28;20457;-73
2021/10/12 00:29:06;;;;;;;17.90;14.10;;;;;;;9.07;100.00;153689.97;5002652;28;20516;-72
2021/10/12 00:31:41;;;;;;;20.70;16.50;;;;;;;9.07;100.00;153688.66;5017675;28;20435;-72
2021/10/12 00:34:19;;;;;;;20.70;14.60;;;;;;;9.06;100.00;153686.06;5035476;28;20461;-72
2021/10/12 00:36:54;;;;;;;18.33;14.83;;;;;;;9.05;100.00;153684.75;5034212;28;20444;-73
2021/10/12 00:39:31;;;;;;;21.83;15.50;;;;;;;9.04;100.00;153680.88;5027261;28;20923;-73
2021/10/12 00:42:06;;;;;;;17.80;13.80;;;;;;;9.03;100.00;153678.28;5014659;28;20436;-74
2021/10/12 00:44:42;;;;;;;16.13;12.43;;;;;;;9.01;100.00;153673.13;5030989;28;20439;-74
2021/10/12 00:47:20;;;;;;;15.27;12.53;;;;;;;8.98;100.00;153665.34;5012388;28;20989;-73
2021/10/12 00:49:57;;;;;;;18.40;13.53;;;;;;;8.95;100.00;153657.59;5034096;28;20447;-74
2021/10/12 00:52:35;;;;;;;18.23;13.60;;;;;;;8.94;100.00;153656.34;5034960;28;20455;-73
2021/10/12 00:55:12;;;;;;;18.90;13.07;;;;;;;8.97;100.00;153662.81;5035089;28;20706;-74
2021/10/12 00:57:48;;;;;;;18.13;12.20;;;;;;;8.97;100.00;153662.81;4998730;28;20439;-74
2021/10/12 01:00:24;;;;;;;14.60;12.00;;;;;;;8.96;100.00;153661.50;5034466;28;20440;-73
2021/10/12 01:03:00;;;;;;;17.47;12.03;;;;;;;8.98;100.00;153666.66;5018728;28;20469;-73
2021/10/12 01:05:37;;;;;;;14.50;11.20;;;;;;;9.00;100.00;153670.56;5032383;28;20522;-73
2021/10/12 01:08:14;;;;;;;15.80;11.40;;;;;;;8.96;100.00;153661.50;5033310;28;20487;-72
2021/10/12 01:10:50;;;;;;;13.93;10.90;;;;;;;8.96;100.00;153660.19;5016778;28;20502;-73
2021/10/12 01:13:26;;;;;;;13.93;10.80;;;;;;;8.96;100.00;153660.19;5034798;28;20458;-73
2021/10/12 01:16:02;;;;;;;12.47;10.93;;;;;;;8.94;100.00;153656.34;5020727;28;20939;-73
2021/10/12 01:18:38;;;;;;;14.17;10.37;;;;;;;8.95;100.00;153658.91;5016744;28;20471;-74
2021/10/12 01:21:15;;;;;;;14.57;10.50;;;;;;;8.94;100.00;153655.03;5034876;28;20446;-72
2021/10/12 01:23:50;;;;;;;16.30;11.10;;;;;;;8.95;100.00;153658.91;5016366;28;20447;-73
2021/10/12 01:26:26;;;;;;;16.00;10.40;;;;;;;8.95;100.00;153658.91;5016433;28;20844;-72
2021/10/12 01:29:01;;;;;;;18.40;10.43;;;;;;;8.92;100.00;153651.13;5001431;28;20483;-73
2021/10/12 01:31:37;;;;;;;14.53;10.63;;;;;;;8.93;100.00;153652.44;5000334;28;20480;-73
2021/10/12 01:34:14;;;;;;;12.43;10.33;;;;;;;8.93;100.00;153652.44;5005364;28;20546;-73
2021/10/12 01:36:52;;;;;;;12.40;9.23;;;;;;;8.91;100.00;153647.28;5016334;28;20462;-73
2021/10/12 01:39:28;;;;;;;11.70;10.07;;;;;;;8.87;100.00;153638.22;5033349;28;20793;-73
2021/10/12 01:42:04;;;;;;;14.63;10.87;;;;;;;8.85;100.00;153633.03;5016640;28;20449;-73
2021/10/12 01:44:40;;;;;;;13.37;10.73;;;;;;;8.81;100.00;153621.41;5026982;28;20513;-73
2021/10/12 01:47:16;;;;;;;12.97;10.00;;;;;;;8.81;100.00;153621.41;5010575;28;20444;-74
2021/10/12 01:49:51;;;;;;;16.93;11.83;;;;;;;8.82;100.00;153623.97;5013071;28;20444;-73
2021/10/12 01:52:28;;;;;;;13.70;10.60;;;;;;;8.79;100.00;153616.25;5009417;28;20542;-73
2021/10/12 01:55:05;;;;;;;17.60;11.73;;;;;;;8.78;100.00;153613.66;5014651;28;20455;-73
2021/10/12 01:57:40;;;;;;;15.10;11.20;;;;;;;8.78;100.00;153613.66;5016879;28;20444;-73
2021/10/12 02:00:16;;;;;;;15.50;10.33;;;;;;;8.74;100.00;153604.59;5033077;28;20444;-72
2021/10/12 02:02:51;;;;;;;13.50;11.00;;;;;;;8.73;100.00;153600.72;5018213;28;20445;-73
2021/10/12 02:05:27;;;;;;;14.90;10.97;;;;;;;8.72;100.00;153599.44;5018413;28;20789;-72
2021/10/12 02:08:04;;;;;;;13.30;10.60;;;;;;;8.72;100.00;153598.13;5032064;28;20481;-72
2021/10/12 02:10:39;;;;;;;15.07;12.17;;;;;;;8.69;100.00;153591.66;5015864;28;20451;-72
2021/10/12 02:13:15;;;;;;;19.90;13.53;;;;;;;8.69;100.00;153590.38;5015118;28;20456;-72
2021/10/12 02:15:50;;;;;;;12.97;11.57;;;;;;;8.67;100.00;153585.22;5014585;28;20797;-72
2021/10/12 02:18:26;;;;;;;15.20;12.90;;;;;;;8.68;100.00;153587.81;4996410;28;20459;-72
2021/10/12 02:21:01;;;;;;;16.07;12.40;;;;;;;8.67;100.00;153586.50;5033416;28;20526;-73
2021/10/12 02:23:38;;;;;;;16.90;12.70;;;;;;;8.68;100.00;153587.81;5015553;28;20468;-72
2021/10/12 02:26:14;;;;;;;16.13;12.77;;;;;;;8.67;100.00;153585.22;4999143;28;20453;-72
2021/10/12 02:28:49;;;;;;;18.70;13.70;;;;;;;8.67;100.00;153585.22;5033327;28;20470;-73
2021/10/12 02:31:25;;;;;;;17.80;13.60;;;;;;;8.69;100.00;153590.38;5015590;28;20805;-72
2021/10/12 02:34:00;;;;;;;20.47;13.30;;;;;;;8.68;100.00;153587.81;5029427;28;20454;-72
2021/10/12 02:36:36;;;;;;;19.97;14.73;;;;;;;8.67;100.00;153585.22;5013341;28;20848;-72
2021/10/12 02:39:13;;;;;;;21.97;15.53;;;;;;;8.68;100.00;153587.81;5000527;28;20448;-72
2021/10/12 02:41:48;;;;;;;24.00;15.70;;;;;;;8.67;100.00;153585.22;5015140;28;20995;-72
2021/10/12 02:44:24;;;;;;;18.13;14.27;;;;;;;8.66;100.00;153583.91;5032355;28;20911;-72
2021/10/12 02:46:59;;;;;;;17.27;13.10;;;;;;;8.66;100.00;153582.66;5019752;28;20451;-72
2021/10/12 02:49:35;;;;;;;16.07;13.67;;;;;;;8.68;100.00;153587.81;5016923;28;20477;-73
2021/10/12 02:52:10;;;;;;;14.03;11.53;;;;;;;8.68;100.00;153587.81;5011257;28;20563;-72
2021/10/12 02:54:47;;;;;;;15.87;11.50;;;;;;;8.65;100.00;153581.34;5012667;28;20453;-72
2021/10/12 02:57:23;;;;;;;15.53;11.73;;;;;;;8.63;100.00;153574.88;5032062;28;20445;-72
2021/10/12 02:59:58;;;;;;;11.37;10.17;;;;;;;8.62;100.00;153572.28;5025135;28;20555;-72
2021/10/12 03:02:34;;;;;;;15.00;10.57;;;;;;;8.62;100.00;153572.28;5015030;28;20461;-72
2021/10/12 03:05:10;;;;;;;12.73;9.77;;;;;;;8.60;100.00;153567.13;4995183;28;20437;-72
2021/10/12 03:07:46;;;;;;;16.40;11.63;;;;;;;8.58;100.00;153564.53;5008348;28;20804;-72
2021/10/12 03:10:23;;;;;;;11.97;10.43;;;;;;;8.57;100.00;153561.97;4995099;28;20522;-73
2021/10/12 03:12:58;;;;;;;14.13;10.73;;;;;;;8.58;100.00;153564.53;5032484;28;20424;-73
2021/10/12 03:15:33;;;;;;;13.20;10.20;;;;;;;8.58;100.00;153563.22;5014836;28;20606;-72
2021/10/12 03:18:09;;;;;;;13.50;9.23;;;;;;;8.59;100.00;153565.81;5013857;28;20439;-72
2021/10/12 03:20:44;;;;;;;11.20;8.43;;;;;;;8.58;100.00;153564.53;5014686;28;20431;-72
2021/10/12 03:23:20;;;;;;;16.67;9.67;;;;;;;8.57;100.00;153561.97;5032322;28;20436;-72
2021/10/12 03:25:57;;;;;;;12.83;11.03;;;;;;;8.56;100.00;153559.38;5024736;28;20975;-73
2021/10/12 03:28:32;;;;;;;13.47;10.40;;;;;;;8.58;100.00;153564.53;5009634;28;20541;-72
2021/10/12 03:31:08;;;;;;;16.93;10.73;;;;;;;8.60;100.00;153567.13;5013497;28;20448;-72
2021/10/12 03:33:44;;;;;;;12.37;10.40;;;;;;;8.60;100.00;153567.13;5032137;28;20554;-72
2021/10/12 03:36:19;;;;;;;13.17;10.73;;;;;;;8.60;100.00;153567.13;4996917;28;20496;-72
2021/10/12 03:38:55;;;;;;;14.87;12.80;;;;;;;8.62;100.00;153573.59;5014514;28;20858;-72
2021/10/12 03:41:32;;;;;;;17.97;12.33;;;;;;;8.61;100.00;153569.69;5014575;28;20435;-72
2021/10/12 03:44:07;;;;;;;20.33;13.83;;;;;;;8.57;100.00;153560.66;5013110;28;20463;-72
2021/10/12 03:46:43;;;;;;;17.97;12.80;;;;;;;8.56;100.00;153559.38;5014275;28;20444;-72
2021/10/12 03:49:19;;;;;;;18.37;12.17;;;;;;;8.57;100.00;153561.97;5013279;28;20482;-72
2021/10/12 03:51:54;;;;;;;16.60;12.87;;;;;;;8.57;100.00;153561.97;5023869;28;20449;-72
2021/10/12 03:54:30;;;;;;;18.57;13.00;;;;;;;8.55;100.00;153556.75;5031058;28;20552;-72
2021/10/12 03:57:07;;;;;;;16.33;12.57;;;;;;;8.56;100.00;153558.06;5038237;28;20899;-72
2021/10/12 03:59:42;;;;;;;16.37;12.90;;;;;;;8.55;100.00;153555.50;5001555;28;20449;-72
2021/10/12 04:02:18;;;;;;;17.47;13.57;;;;;;;8.56;100.00;153559.38;5031887;28;20455;-72
2021/10/12 04:04:53;;;;;;;18.93;13.97;;;;;;;8.58;100.00;153564.53;5038553;28;20480;-72
2021/10/12 04:07:28;;;;;;;16.00;13.13;;;;;;;8.60;100.00;153567.13;5029595;28;20442;-73
2021/10/12 04:10:05;;;;;;;16.27;14.53;;;;;;;8.58;100.00;153564.53;5020600;28;20967;-72
2021/10/12 04:12:42;;;;;;;17.37;13.50;;;;;;;8.59;100.00;153565.81;5037942;28;20812;-73
2021/10/12 04:15:18;;;;;;;19.63;14.37;;;;;;;8.60;100.00;153567.13;5021269;28;20447;-72
2021/10/12 04:17:53;;;;;;;16.07;12.60;;;;;;;8.60;100.00;153567.13;5036742;28;20446;-73
2021/10/12 04:20:28;;;;;;;17.93;13.47;;;;;;;8.60;100.00;153567.13;5006288;28;20464;-72
2021/10/12 04:23:08;;;;;;;16.40;13.20;;;;;;;8.57;100.00;153561.97;5009657;28;20766;-72
2021/10/12 04:25:43;;;;;;;15.73;12.87;;;;;;;8.58;100.00;153564.53;5037002;28;20474;-72
2021/10/12 04:28:20;;;;;;;17.20;12.80;;;;;;;8.58;100.00;153563.22;5019578;28;20510;-72
2021/10/12 04:30:56;;;;;;;18.53;12.30;;;;;;;8.60;100.00;153567.13;5023705;28;20946;-72
2021/10/12 04:33:31;;;;;;;15.60;11.47;;;;;;;8.60;100.00;153568.44;5019544;28;20557;-72
2021/10/12 04:36:07;;;;;;;17.07;12.90;;;;;;;8.58;100.00;153564.53;5036986;28;20447;-72
2021/10/12 04:38:42;;;;;;;22.83;13.23;;;;;;;8.62;100.00;153572.28;5038233;28;20459;-72
2021/10/12 04:41:18;;;;;;;22.70;13.00;;;;;;;8.63;100.00;153574.88;5037378;28;20471;-73
2021/10/12 04:43:55;;;;;;;18.43;13.53;;;;;;;8.65;100.00;153580.03;5034934;28;20448;-72
2021/10/12 04:46:31;;;;;;;14.50;12.83;;;;;;;8.64;100.00;153577.44;5018586;28;20428;-72
2021/10/12 04:49:06;;;;;;;16.53;12.53;;;;;;;8.64;100.00;153577.44;5038154;28;20472;-72
2021/10/12 04:51:43;;;;;;;13.80;10.43;;;;;;;8.65;100.00;153581.34;5026379;28;20484;-73
2021/10/12 04:54:18;;;;;;;13.33;10.87;;;;;;;8.67;100.00;153585.22;5004787;28;20463;-73
2021/10/12 04:56:54;;;;;;;13.47;10.83;;;;;;;8.66;100.00;153582.66;5019827;28;20452;-73
2021/10/12 04:59:31;;;;;;;15.23;11.23;;;;;;;8.68;100.00;153589.13;5026426;28;20447;-73
2021/10/12 05:02:06;;;;;;;15.10;10.80;;;;;;;8.67;100.00;153586.50;5036120;28;20475;-73
2021/10/12 05:04:42;;;;;;;14.33;11.10;;;;;;;8.68;100.00;153587.81;5035825;28;20455;-73
2021/10/12 05:07:17;;;;;;;16.50;11.50;;;;;;;8.68;100.00;153587.81;5002728;28;20805;-73
2021/10/12 05:09:54;;;;;;;13.90;10.67;;;;;;;8.68;100.00;153587.81;5031946;28;21045;-73
2021/10/12 05:12:29;;;;;;;12.27;10.10;;;;;;;8.68;100.00;153587.81;5033845;28;20447;-73
2021/10/12 05:15:08;;;;;;;14.10;10.43;;;;;;;8.63;100.00;153576.13;5015518;28;20454;-73
2021/10/12 05:17:46;;;;;;;15.63;10.47;;;;;;;8.62;100.00;153572.28;5016546;28;20464;-73
2021/10/12 05:20:24;;;;;;;14.47;11.20;;;;;;;8.63;100.00;153574.88;5033745;28;20475;-73
2021/10/12 05:23:00;;;;;;;13.40;11.20;;;;;;;8.66;100.00;153582.66;5015999;28;21004;-73
2021/10/12 05:25:35;;;;;;;12.83;10.80;;;;;;;8.66;100.00;153582.66;5000732;28;20444;-73
2021/10/12 05:28:11;;;;;;;12.30;10.20;;;;;;;8.66;100.00;153582.66;5015436;28;20948;-73
2021/10/12 05:30:50;;;;;;;15.70;10.30;;;;;;;8.67;100.00;153585.22;5028553;28;20428;-73
2021/10/12 05:33:25;;;;;;;13.20;11.63;;;;;;;8.63;100.00;153574.88;5013292;28;20468;-73
2021/10/12 05:36:01;;;;;;;13.43;10.77;;;;;;;8.63;100.00;153574.88;5015585;28;20848;-73
2021/10/12 05:38:37;;;;;;;13.93;9.60;;;;;;;8.64;100.00;153577.44;5034258;28;20443;-73
2021/10/12 05:41:12;;;;;;;18.20;11.20;;;;;;;8.61;100.00;153569.69;5015223;28;20954;-73
2021/10/12 05:43:48;;;;;;;13.77;10.33;;;;;;;8.60;100.00;153568.44;4998179;28;20852;-73
2021/10/12 05:46:25;;;;;;;14.63;10.27;;;;;;;8.61;100.00;153570.97;5016772;28;20439;-73
2021/10/12 05:49:00;;;;;;;18.13;11.13;;;;;;;8.60;100.00;153567.13;5015875;28;21049;-72
2021/10/12 05:51:36;;;;;;;13.90;10.07;;;;;;;8.59;100.00;153565.81;5016168;28;20896;-73
2021/10/12 05:54:14;;;;;;;13.90;11.47;;;;;;;8.61;100.00;153569.69;5023523;28;21060;-73
2021/10/12 05:56:56;;;;;;;14.43;10.87;;;;;;;8.61;100.00;153570.97;5012896;28;20428;-73
2021/10/12 05:59:31;;;;;;;17.30;11.30;;;;;;;8.63;100.00;153574.88;5025293;28;20452;-72
2021/10/12 06:02:08;;;;;;;15.00;11.90;;;;;;;8.61;100.00;153570.97;5011887;28;20897;-73
2021/10/12 06:04:43;;;;;;;17.00;12.03;;;;;;;8.61;100.00;153569.69;5023047;28;20447;-73
2021/10/12 06:07:19;;;;;;;16.50;12.13;;;;;;;8.62;100.00;153573.59;5031469;28;20526;-73
2021/10/12 06:09:54;;;;;;;14.83;11.37;;;;;;;8.64;100.00;153578.75;5015888;28;20475;-73
2021/10/12 06:12:30;;;;;;;17.97;10.83;;;;;;;8.65;100.00;153580.03;5032647;28;20447;-73
2021/10/12 06:15:06;;;;;;;14.40;12.33;;;;;;;8.65;100.00;153581.34;5033642;28;20453;-73
2021/10/12 06:17:43;;;;;;;14.63;11.47;;;;;;;8.67;100.00;153586.50;5015559;28;20451;-73
2021/10/12 06:20:18;;;;;;;13.90;11.50;;;;;;;8.69;100.00;153590.38;5011129;28;20503;-72
2021/10/12 06:22:54;;;;;;;15.07;12.80;;;;;;;8.70;100.00;153592.97;5014886;28;20443;-73
2021/10/12 06:25:31;;;;;;;14.30;11.03;;;;;;;8.70;100.00;153592.97;5003448;28;20439;-73
2021/10/12 06:28:06;;;;;;;15.00;11.67;;;;;;;8.68;100.00;153587.81;5015668;28;20443;-73
2021/10/12 06:30:42;;;;;;;15.63;12.10;;;;;;;8.71;100.00;153595.56;5013986;28;20495;-73
2021/10/12 06:33:19;;;;;;;14.73;10.93;;;;;;;8.71;100.00;153595.56;5014966;28;20451;-73
2021/10/12 06:35:55;;;;;;;14.43;10.30;;;;;;;8.73;100.00;153602.03;5030774;28;20453;-73
2021/10/12 06:38:30;;;;;;;12.27;9.93;;;;;;;8.74;100.00;153604.59;5011136;28;20460;-73
2021/10/12 06:41:06;;;;;;;17.67;11.10;;;;;;;8.76;100.00;153609.81;5004028;28;20441;-73
2021/10/12 06:43:41;;;;;;;19.50;11.90;;;;;;;8.76;100.00;153608.50;5023846;28;20447;-73
2021/10/12 06:46:18;;;;;;;14.00;10.87;;;;;;;8.78;100.00;153614.97;5010491;28;20444;-73
2021/10/12 06:48:55;;;;;;;14.80;10.87;;;;;;;8.79;100.00;153616.25;5003143;28;20944;-73
2021/10/12 06:51:30;;;;;;;14.83;11.90;;;;;;;8.79;100.00;153616.25;5009943;28;20436;-73
2021/10/12 06:54:06;;;;;;;13.30;10.60;;;;;;;8.80;100.00;153618.81;5004984;28;20449;-73
2021/10/12 06:56:42;;;;;;;15.03;11.70;;;;;;;8.80;100.00;153618.81;5004866;28;20443;-73
2021/10/12 06:59:17;;;;;;;14.00;10.37;;;;;;;8.81;100.00;153621.41;5010065;28;20443;-73
2021/10/12 07:01:53;;;;;;;18.17;12.27;;;;;;;8.81;100.00;153621.41;5004599;28;20928;-73
2021/10/12 07:04:30;;;;;;;15.27;11.93;;;;;;;8.81;100.00;153621.41;5006813;28;20581;-74
2021/10/12 07:07:06;;;;;;;16.77;13.40;;;;;;;8.84;100.00;153630.44;5007402;28;20448;-73
2021/10/12 07:09:42;;;;;;;16.40;12.70;;;;;;;8.82;100.00;153623.97;5010775;28;20480;-73
2021/10/12 07:12:17;;;;;;;14.00;10.80;;;;;;;8.83;100.00;153626.59;5006111;28;20450;-73
2021/10/12 07:14:53;;;;;;;12.20;10.37;;;;;;;8.82;100.00;153623.97;5013215;28;20442;-73
2021/10/12 07:17:28;;;;;;;16.23;12.00;;;;;;;8.86;100.00;153634.34;5031660;28;20511;-73
2021/10/12 07:20:07;;;;;;;13.50;10.67;;;;;;;8.83;100.00;153626.59;5031538;28;20553;-74
2021/10/12 07:22:42;;;;;;;15.70;11.30;;;;;;;8.85;100.00;153631.75;5032821;28;20420;-72
2021/10/12 07:25:18;;;;;;;16.57;12.47;;;;;;;8.86;100.00;153634.34;5013942;28;20958;-72
2021/10/12 07:27:53;;;;;;;14.13;9.87;;;;;;;8.89;100.00;153643.41;5013422;28;20458;-73
2021/10/12 07:30:29;;;;;;;12.30;10.90;;;;;;;8.90;100.00;153644.66;5013542;28;20472;-73
2021/10/12 07:33:04;;;;;;;18.00;10.40;;;;;;;8.93;100.00;153652.44;5025515;28;20487;-73
2021/10/12 07:35:43;;;;;;;15.10;10.83;;;;;;;8.94;100.00;153655.03;5032013;28;20447;-73
2021/10/12 07:38:19;;;;;;;14.67;9.93;;;;;;;8.98;100.00;153665.34;5004730;28;20436;-72
2021/10/12 07:40:54;;;;;;;13.37;9.90;;;;;;;8.97;100.00;153662.81;5015309;28;20447;-72
2021/10/12 07:43:30;;;;;;;12.73;10.37;;;;;;;8.98;100.00;153665.34;5032088;28;20454;-72
2021/10/12 07:46:06;;;;;;;15.63;9.20;;;;;;;8.97;100.00;153662.81;5013762;28;20787;-73
2021/10/12 07:48:41;;;;;;;12.93;9.37;;;;;;;8.96;100.00;153661.50;5031804;28;20480;-73
2021/10/12 07:51:18;;;;;;;11.10;8.37;;;;;;;8.96;100.00;153660.19;5014933;28;20455;-72
2021/10/12 07:53:55;;;;;;;11.10;9.27;;;;;;;8.95;100.00;153657.59;5010906;28;20459;-72
2021/10/12 07:56:40;;;;;;;14.13;9.70;;;;;;;8.99;100.00;153667.97;5012953;28;20480;-72
2021/10/12 07:59:18;;;;;;;11.10;8.80;;;;;;;9.01;100.00;153673.13;5015895;28;20999;-72
2021/10/12 08:01:56;;;;;;;11.07;8.47;;;;;;;9.05;100.00;153683.50;5013236;28;20937;-74
2021/10/12 08:04:31;;;;;;;11.90;8.90;;;;;;;9.06;100.00;153687.34;5013585;28;20452;-74
2021/10/12 08:07:09;;;;;;;11.03;9.13;;;;;;;9.08;100.00;153691.25;5013968;28;20485;-73
2021/10/12 08:09:44;;;;;;;10.77;8.50;;;;;;;9.10;100.00;153696.41;5032123;28;20475;-72
2021/10/12 08:12:19;;;;;;;13.43;9.20;;;;;;;9.13;100.00;153705.44;5013786;28;20481;-72
2021/10/12 08:14:59;;;;;;;9.60;8.50;;;;;;;9.14;100.00;153706.75;5031284;28;20455;-72
2021/10/12 08:17:34;;;;;;;11.73;9.30;;;;;;;9.17;100.00;153715.81;5013126;28;20438;-72
2021/10/12 08:20:10;;;;;;;11.33;9.23;;;;;;;9.21;100.00;153724.88;5002123;28;20488;-72
2021/10/12 08:22:47;;;;;;;11.10;8.77;;;;;;;9.24;100.00;153732.59;5023619;28;21000;-72
2021/10/12 08:25:23;;;;;;;11.97;9.97;;;;;;;9.25;100.00;153733.91;4998889;28;20440;-72
2021/10/12 08:27:59;;;;;;;12.10;8.80;;;;;;;9.26;100.00;153737.81;5013670;28;20448;-73
2021/10/12 08:30:35;;;;;;;12.10;8.57;;;;;;;9.30;100.00;153748.13;5019554;28;20466;-72
2021/10/12 08:33:11;;;;;;;11.90;8.33;;;;;;;9.35;100.00;153759.75;5014110;28;20479;-72
2021/10/12 08:35:47;;;;;;;9.77;7.80;;;;;;;9.39;100.00;153771.44;5014000;28;20432;-72
2021/10/12 08:38:24;;;;;;;13.20;8.43;;;;;;;9.46;100.00;153789.53;5005199;28;20450;-72
2021/10/12 08:41:05;;;;;;;10.77;8.10;;;;;;;9.50;100.00;153799.91;5013911;28;20483;-72
2021/10/12 08:43:40;;;;;;;12.47;8.80;;;;;;;9.50;100.00;153799.91;5016346;28;20850;-72
2021/10/12 08:46:16;;;;;;;12.10;9.17;;;;;;;9.56;100.00;153814.09;5035467;28;20434;-73
2021/10/12 08:48:54;;;;;;;8.30;7.40;;;;;;;9.62;100.00;153830.94;4999836;28;20974;-72
2021/10/12 08:51:29;;;;;;;13.43;8.67;;;;;;;9.70;100.00;153851.63;5036437;28;20829;-72
2021/10/12 08:54:06;;;;;;;10.13;8.77;;;;;;;9.77;100.00;153869.75;5031721;28;20452;-72
2021/10/12 08:56:42;;;;;;;11.70;7.23;;;;;;;9.78;100.00;153872.34;5018824;28;20475;-72
2021/10/12 08:59:17;;;;;;;11.23;9.23;;;;;;;9.85;100.00;153889.16;5033538;28;20491;-72
2021/10/12 09:01:58;;;;;;;10.07;6.93;;;;;;;9.92;100.00;153906.00;5000983;28;20482;-72
2021/10/12 09:04:38;;;;;;;11.40;8.23;;;;;;;9.93;100.00;153908.59;5034245;28;20452;-72
2021/10/12 09:07:18;;;;;;;10.37;7.40;;;;;;;9.88;100.00;153895.59;5016649;28;20459;-72
2021/10/12 09:09:56;;;;;;;11.67;7.93;;;;;;;9.85;100.00;153887.88;5020066;28;20467;-72
2021/10/12 09:12:45;;;;;;;11.07;7.53;;;;;;;9.92;100.00;153906.00;5016297;28;20454;-73
2021/10/12 09:15:21;;;;;;;13.20;8.63;;;;;;;9.96;100.00;153916.31;5033874;28;20811;-72
2021/10/12 09:17:56;;;;;;;10.83;7.80;;;;;;;10.00;100.00;153926.69;5044580;28;20446;-73
2021/10/12 09:20:33;;;;;;;9.20;7.60;;;;;;;10.09;100.00;153949.97;5028236;28;20579;-73
2021/10/12 09:23:11;;;;;;;11.03;7.40;;;;;;;10.10;100.00;153952.56;5010922;28;20546;-73
2021/10/12 09:25:48;;;;;;;8.57;6.80;;;;;;;10.16;100.00;153968.16;5014377;28;20429;-73
2021/10/12 09:28:24;;;;;;;9.87;8.10;;;;;;;10.23;100.00;153986.28;5014002;28;20448;-72
2021/10/12 09:31:01;;;;;;;12.20;8.53;;;;;;;10.28;100.00;153999.22;5034623;28;20459;-72
2021/10/12 09:33:46;;;;;;;8.23;7.27;;;;;;;10.27;100.00;153997.91;5015743;28;20468;-72
2021/10/12 09:36:29;;;;;;;11.73;9.00;;;;;;;10.38;100.00;154025.09;5013444;28;20452;-72
2021/10/12 09:39:11;;;;;;;11.13;7.47;;;;;;;10.40;100.00;154030.31;5016497;28;20539;-73
2021/10/12 09:41:55;;;;;;;9.90;7.70;;;;;;;10.47;100.00;154048.41;5016146;28;20519;-73
2021/10/12 09:44:33;;;;;;;9.83;7.13;;;;;;;10.44;100.00;154040.63;5015914;28;20933;-73
2021/10/12 09:47:21;;;;;;;8.63;7.13;;;;;;;10.39;100.00;154027.69;5033086;28;20462;-72
2021/10/12 09:50:07;;;;;;;10.90;7.57;;;;;;;10.42;100.00;154035.47;5034474;28;20467;-72
2021/10/12 09:52:45;;;;;;;7.57;6.80;;;;;;;10.47;100.00;154048.41;5015582;28;20556;-72
2021/10/12 09:55:21;;;;;;;9.40;7.37;;;;;;;10.51;100.00;154058.75;5030909;28;20440;-72
2021/10/12 09:57:58;;;;;;;8.47;6.87;;;;;;;10.55;100.00;154069.13;5019880;28;20437;-73
2021/10/12 10:00:34;;;;;;;8.17;7.30;;;;;;;10.58;100.00;154076.91;5033601;28;20430;-72
2021/10/12 10:03:11;;;;;;;9.47;7.87;;;;;;;10.57;100.00;154073.00;5012866;28;20442;-72
2021/10/12 10:05:46;;;;;;;9.10;7.37;;;;;;;10.56;100.00;154071.75;5015355;28;20444;-73
2021/10/12 10:08:22;;;;;;;13.87;7.90;;;;;;;10.60;100.00;154082.06;5016084;28;20827;-73
2021/10/12 10:10:59;;;;;;;9.73;6.67;;;;;;;10.58;100.00;154075.59;5033232;28;20468;-73
2021/10/12 10:13:38;;;;;;;7.33;5.67;;;;;;;10.52;100.00;154061.34;5014104;28;20897;-73
2021/10/12 10:16:14;;;;;;;7.80;6.30;;;;;;;10.49;100.00;154053.59;5040075;28;20888;-75
2021/10/12 10:18:50;;;;;;;9.37;7.20;;;;;;;10.37;100.00;154023.84;5031371;28;20482;-75
2021/10/12 10:21:26;;;;;;;7.23;6.50;;;;;;;10.38;100.00;154025.09;5017968;28;20454;-75
2021/10/12 10:24:08;;;;;;;10.07;6.03;;;;;;;10.31;100.00;154007.00;5029635;28;20497;-75
2021/10/12 10:26:43;;;;;;;11.30;6.37;;;;;;;10.31;100.00;154007.00;5031187;28;20481;-75
2021/10/12 10:29:27;;;;;;;8.07;6.53;;;;;;;10.31;100.00;154007.00;5036517;28;20457;-75
2021/10/12 10:32:13;;;;;;;9.40;6.67;;;;;;;10.30;100.00;154004.38;5019665;28;20858;-74
2021/10/12 10:34:59;;;;;;;8.00;6.80;;;;;;;10.16;100.00;153968.16;5025346;28;20460;-74
2021/10/12 10:37:34;;;;;;;10.93;6.87;;;;;;;10.09;100.00;153949.97;5034708;28;20436;-74
2021/10/12 10:40:26;;;;;;;7.57;5.30;;;;;;;10.17;100.00;153972.03;5015603;28;20559;-74
2021/10/12 10:43:02;;;;;;;7.83;6.17;;;;;;;10.25;100.00;153991.44;5013968;28;20448;-74
2021/10/12 10:45:50;;;;;;;7.37;6.00;;;;;;;10.36;100.00;154019.94;5016226;28;20456;-74
2021/10/12 10:48:26;;;;;;;7.70;6.40;;;;;;;10.49;100.00;154052.28;4996826;28;20479;-74
2021/10/12 10:51:20;;;;;;;6.70;5.90;;;;;;;10.68;100.00;154102.78;5034308;28;20468;-74
2021/10/12 10:53:55;;;;;;;10.07;7.33;;;;;;;10.92;100.00;154164.97;5029419;28;20466;-74
2021/10/12 10:56:31;;;;;;;8.23;6.97;;;;;;;11.04;100.00;154193.47;5030803;28;20461;-74
2021/10/12 10:59:22;;;;;;;9.03;7.37;;;;;;;11.20;100.00;154234.94;5027108;28;20462;-73
2021/10/12 11:01:58;;;;;;;8.20;6.60;;;;;;;11.12;100.00;154214.19;5007226;28;20456;-74
2021/10/12 11:04:43;;;;;;;11.57;7.37;;;;;;;11.21;100.00;154237.47;5027298;28;20444;-74
2021/10/12 11:07:20;;;;;;;10.07;5.50;;;;;;;11.36;100.00;154276.34;5014454;28;21002;-74
2021/10/12 11:09:56;;;;;;;6.13;5.13;;;;;;;11.34;100.00;154272.47;5032133;28;20448;-74
2021/10/12 11:12:41;;;;;;;9.50;5.30;;;;;;;11.40;100.00;154288.03;5013848;28;20866;-74
2021/10/12 11:15:17;;;;;;;5.30;4.80;;;;;;;11.41;100.00;154290.59;5013938;28;20576;-74
2021/10/12 11:18:06;;;;;;;7.30;5.20;;;;;;;11.36;100.00;154276.34;5015515;28;20861;-74
2021/10/12 11:20:44;;;;;;;10.60;5.13;;;;;;;11.33;100.00;154268.59;5013050;28;20475;-74
2021/10/12 11:23:24;;;;;;;8.37;4.93;;;;;;;11.33;100.00;154268.59;5013071;28;20993;-74
2021/10/12 11:26:04;;;;;;;7.43;4.50;;;;;;;11.26;100.00;154250.44;5030803;28;20483;-74
2021/10/12 11:28:41;;;;;;;7.40;4.90;;;;;;;11.22;100.00;154240.09;5034307;28;20451;-74
2021/10/12 11:31:18;;;;;;;7.53;5.23;;;;;;;11.14;100.00;154219.38;5012774;28;20474;-74
2021/10/12 11:33:56;;;;;;;10.93;4.87;;;;;;;11.13;100.00;154218.06;5010401;28;20459;-74
2021/10/12 11:36:33;;;;;;;6.40;5.10;;;;;;;11.12;100.00;154214.19;5022897;28;20909;-74
2021/10/12 11:39:11;;;;;;;7.93;5.77;;;;;;;11.18;100.00;154229.72;5015665;28;20462;-74
2021/10/12 11:41:46;;;;;;;7.67;4.80;;;;;;;11.21;100.00;154238.78;5028426;28;20453;-74
2021/10/12 11:44:22;;;;;;;9.50;4.93;;;;;;;11.20;100.00;154234.94;5025019;28;20462;-74
2021/10/12 11:47:00;;;;;;;5.60;5.00;;;;;;;11.13;100.00;154216.75;5031463;28;20842;-74
2021/10/12 11:49:40;;;;;;;6.70;5.27;;;;;;;11.21;100.00;154237.47;5032047;28;20925;-74
2021/10/12 11:52:16;;;;;;;6.60;5.40;;;;;;;11.18;100.00;154229.72;5004881;28;20471;-74
2021/10/12 11:55:03;;;;;;;7.10;5.70;;;;;;;11.24;100.00;154246.56;5013981;28;20459;-74